Terminal Aerodrome Forecast
Issued by NWS Buffalo, NY

Home | Current Version | Previous Version | Text Only | Print | Product List | Glossary On
Versions: 1 2 3 4 5 6 7 8 9 10 11 12 13 14 15 16 17 18 19 20 21 22 23 24 25
000
FTUS41 KBUF 200927 AAA
TAFROC
TAF AMD
KROC 200927Z 2009/2106 24018G30KT P6SM BKN200 WS020/25045KT
     FM201400 25017G29KT P6SM BKN150
     FM201800 26017G25KT P6SM SCT110
     FM210000 26013KT P6SM SCT200
     FM210400 26008KT P6SM BKN110=

USA.gov is the U.S. government's official web portal to all federal, state and local government web resources and services.